createdAt,value
2023-01-29T00:02:12.645Z,12.27
2023-01-29T00:04:40.029Z,12.70
2023-01-29T00:07:07.210Z,12.75
2023-01-29T00:09:34.507Z,10.70
2023-01-29T00:12:01.374Z,11.15
2023-01-29T00:14:28.683Z,12.32
2023-01-29T00:16:55.818Z,12.10
2023-01-29T00:19:23.306Z,12.88
2023-01-29T00:21:50.136Z,11.68
2023-01-29T00:24:17.482Z,12.07
2023-01-29T00:26:45.079Z,11.55
2023-01-29T00:29:12.397Z,12.27
2023-01-29T00:31:39.384Z,10.70
2023-01-29T00:34:06.336Z,11.93
2023-01-29T00:36:33.527Z,12.70
2023-01-29T00:39:02.919Z,12.07
2023-01-29T00:41:51.202Z,12.52
2023-01-29T00:44:37.514Z,13.20
2023-01-29T00:47:25.474Z,12.88
2023-01-29T00:49:52.852Z,12.82
2023-01-29T00:52:26.294Z,12.82
2023-01-29T00:54:55.027Z,11.80
2023-01-29T00:57:22.360Z,11.68
2023-01-29T00:59:49.210Z,11.35
2023-01-29T01:02:35.471Z,10.57
2023-01-29T01:05:06.253Z,10.15
2023-01-29T01:07:33.675Z,9.95
2023-01-29T01:10:19.154Z,10.40
2023-01-29T01:12:45.987Z,9.13
2023-01-29T01:15:13.448Z,9.32
2023-01-29T01:17:40.463Z,8.52
2023-01-29T01:20:07.979Z,8.18
2023-01-29T01:22:35.927Z,8.90
2023-01-29T01:25:02.827Z,9.23
2023-01-29T01:27:30.164Z,10.18
2023-01-29T01:29:57.362Z,10.02
2023-01-29T01:32:24.265Z,9.93
2023-01-29T01:34:52.934Z,9.70
2023-01-29T01:37:21.079Z,10.23
2023-01-29T01:39:49.058Z,10.80
2023-01-29T01:42:16.242Z,10.13
2023-01-29T01:44:57.217Z,10.90
2023-01-29T01:47:46.898Z,9.93
2023-01-29T01:50:19.638Z,9.77
2023-01-29T01:52:49.416Z,10.18
2023-01-29T01:55:19.606Z,10.65
2023-01-29T01:57:48.449Z,10.30
2023-01-29T02:00:17.723Z,10.50
2023-01-29T02:03:04.708Z,10.98
2023-01-29T02:05:53.130Z,10.27
2023-01-29T02:09:16.429Z,10.43
2023-01-29T02:11:43.660Z,10.17
2023-01-29T02:14:11.685Z,10.57
2023-01-29T02:16:38.814Z,11.10
2023-01-29T02:19:08.043Z,11.65
2023-01-29T02:22:06.898Z,10.90
2023-01-29T02:25:10.017Z,10.85
2023-01-29T02:27:49.866Z,10.30
2023-01-29T02:30:17.428Z,10.52
2023-01-29T02:32:58.837Z,9.73
2023-01-29T02:35:38.683Z,9.13
2023-01-29T02:38:09.020Z,10.38
2023-01-29T02:40:39.904Z,10.10
2023-01-29T02:43:16.735Z,10.15
2023-01-29T02:45:54.015Z,10.27
2023-01-29T02:48:23.169Z,11.02
2023-01-29T02:50:55.639Z,10.65
2023-01-29T02:53:26.375Z,10.32
2023-01-29T02:56:19.911Z,9.77
2023-01-29T03:01:30.389Z,10.23
2023-01-29T03:04:01.246Z,9.82
2023-01-29T03:06:31.079Z,10.55
2023-01-29T03:09:21.359Z,9.80
2023-01-29T03:11:54.684Z,9.68
2023-01-29T03:14:24.744Z,10.02
2023-01-29T03:16:53.277Z,10.95
2023-01-29T03:19:29.456Z,11.43
2023-01-29T03:22:00.766Z,12.23
2023-01-29T03:24:53.888Z,12.93
2023-01-29T03:27:45.053Z,10.90
2023-01-29T03:30:34.993Z,16.73
2023-01-29T03:33:06.614Z,16.05
2023-01-29T03:35:36.981Z,16.35
2023-01-29T03:38:11.995Z,17.67
2023-01-29T03:41:00.099Z,16.27
2023-01-29T03:43:27.897Z,16.10
2023-01-29T03:46:19.016Z,14.45
2023-01-29T03:48:55.376Z,10.25
2023-01-29T03:51:22.587Z,12.27
2023-01-29T03:54:14.587Z,11.07
2023-01-29T03:56:56.188Z,10.02
2023-01-29T03:59:35.286Z,10.35
2023-01-29T04:02:04.990Z,9.60
2023-01-29T04:04:33.763Z,9.82
2023-01-29T04:07:06.827Z,11.05
2023-01-29T04:12:11.725Z,11.38
2023-01-29T04:14:39.815Z,10.82
2023-01-29T04:17:14.953Z,11.55
2023-01-29T04:19:42.306Z,11.68
2023-01-29T04:22:21.489Z,11.68
2023-01-29T04:24:49.223Z,11.48
2023-01-29T04:27:35.203Z,12.38
2023-01-29T04:30:05.228Z,12.32
2023-01-29T04:32:51.007Z,10.88
2023-01-29T04:35:41.264Z,11.68
2023-01-29T04:38:27.156Z,10.77
2023-01-29T04:41:18.883Z,12.00
2023-01-29T04:43:46.172Z,11.98
2023-01-29T04:46:21.331Z,11.25
2023-01-29T04:48:54.744Z,12.15
2023-01-29T04:51:35.439Z,11.77
2023-01-29T04:54:17.968Z,11.30
2023-01-29T04:56:57.837Z,10.15
2023-01-29T04:59:36.254Z,10.05
2023-01-29T05:02:04.625Z,10.02
2023-01-29T05:04:34.361Z,9.25
2023-01-29T05:07:09.258Z,9.18
2023-01-29T05:09:37.890Z,9.15
2023-01-29T05:12:06.333Z,8.65
2023-01-29T05:14:34.915Z,8.05
2023-01-29T05:17:07.588Z,8.55
2023-01-29T05:19:34.867Z,8.73
2023-01-29T05:22:05.488Z,7.45
2023-01-29T05:24:32.734Z,7.95
2023-01-29T05:27:18.778Z,7.50
2023-01-29T05:29:47.029Z,7.80
2023-01-29T05:32:14.506Z,7.65
2023-01-29T05:34:41.764Z,8.10
2023-01-29T05:37:10.131Z,7.40
2023-01-29T05:39:37.399Z,7.13
2023-01-29T05:42:04.405Z,7.55
2023-01-29T05:44:31.827Z,7.88
2023-01-29T05:46:59.073Z,6.75
2023-01-29T05:49:26.431Z,8.35
2023-01-29T05:51:53.316Z,8.05
2023-01-29T05:54:20.555Z,8.70
2023-01-29T05:56:47.816Z,9.88
2023-01-29T05:59:16.063Z,7.80
2023-01-29T06:01:43.311Z,10.18
2023-01-29T06:04:10.400Z,9.80
2023-01-29T06:06:37.648Z,9.32
2023-01-29T06:09:04.989Z,8.95
2023-01-29T06:11:32.271Z,7.90
2023-01-29T06:13:59.458Z,8.38
2023-01-29T06:16:26.308Z,8.48
2023-01-29T06:18:53.568Z,9.65
2023-01-29T06:21:20.747Z,8.68
2023-01-29T06:23:48.088Z,9.80
2023-01-29T06:26:16.567Z,8.32
2023-01-29T06:28:45.922Z,9.07
2023-01-29T06:31:35.281Z,9.13
2023-01-29T06:34:00.003Z,10.23
2023-01-29T06:36:27.199Z,8.85
2023-01-29T06:38:54.000Z,8.88
2023-01-29T06:41:25.716Z,8.45
2023-01-29T06:43:53.177Z,8.35
2023-01-29T06:46:20.025Z,9.13
2023-01-29T06:48:46.906Z,7.68
2023-01-29T06:51:14.154Z,7.95
2023-01-29T06:53:42.835Z,8.68
2023-01-29T06:56:11.580Z,7.82
2023-01-29T06:58:38.863Z,7.50
2023-01-29T07:01:10.465Z,7.68
2023-01-29T07:03:37.749Z,8.07
2023-01-29T07:06:06.121Z,7.82
2023-01-29T07:08:37.100Z,8.05
2023-01-29T07:11:04.366Z,6.68
2023-01-29T07:13:31.560Z,7.55
2023-01-29T07:16:00.373Z,8.40
2023-01-29T07:18:31.150Z,7.65
2023-01-29T07:20:58.778Z,8.13
2023-01-29T07:23:26.076Z,7.28
2023-01-29T07:25:53.347Z,7.22
2023-01-29T07:28:20.771Z,6.93
2023-01-29T07:30:48.093Z,7.63
2023-01-29T07:33:15.404Z,7.25
2023-01-29T07:35:43.464Z,7.65
2023-01-29T07:38:11.539Z,7.25
2023-01-29T07:40:38.435Z,7.70
2023-01-29T07:43:07.201Z,7.60
2023-01-29T07:45:35.268Z,7.70
2023-01-29T07:48:02.425Z,6.95
2023-01-29T07:50:29.222Z,6.55
2023-01-29T07:52:56.646Z,6.05
2023-01-29T07:55:24.061Z,6.93
2023-01-29T07:58:17.788Z,5.40
2023-01-29T08:00:45.046Z,6.82
2023-01-29T08:03:13.640Z,5.50
2023-01-29T08:05:40.448Z,5.97
2023-01-29T08:08:08.080Z,5.80
2023-01-29T08:10:38.752Z,5.50
2023-01-29T08:13:06.660Z,4.53
2023-01-29T08:15:34.911Z,5.57
2023-01-29T08:18:03.266Z,5.82
2023-01-29T08:20:30.532Z,5.70
2023-01-29T08:23:02.269Z,5.68
2023-01-29T08:25:29.716Z,6.60
2023-01-29T08:27:58.061Z,6.97
2023-01-29T08:30:29.046Z,6.20
2023-01-29T08:32:55.956Z,6.28
2023-01-29T08:35:23.171Z,7.15
2023-01-29T08:37:54.793Z,6.65
2023-01-29T08:40:21.970Z,6.75
2023-01-29T08:42:49.214Z,6.60
2023-01-29T08:45:16.540Z,7.28
2023-01-29T08:47:50.195Z,5.80
2023-01-29T08:50:18.570Z,7.60
2023-01-29T08:52:46.060Z,7.30
2023-01-29T08:55:13.545Z,7.38
2023-01-29T08:57:40.765Z,6.05
2023-01-29T09:00:09.447Z,6.10
2023-01-29T09:02:36.825Z,6.82
2023-01-29T09:05:04.495Z,6.40
2023-01-29T09:07:31.723Z,6.10
2023-01-29T09:09:58.915Z,6.78
2023-01-29T09:12:26.242Z,7.20
2023-01-29T09:14:53.113Z,6.53
2023-01-29T09:17:20.407Z,5.93
2023-01-29T09:19:47.340Z,6.63
2023-01-29T09:22:14.679Z,7.13
2023-01-29T09:24:41.879Z,6.82
2023-01-29T09:27:10.119Z,7.60
2023-01-29T09:29:37.355Z,5.75
2023-01-29T09:32:07.696Z,6.65
2023-01-29T09:34:35.308Z,7.43
2023-01-29T09:37:02.535Z,6.25
2023-01-29T09:39:29.747Z,6.10
2023-01-29T09:42:04.622Z,6.53
2023-01-29T09:44:47.841Z,6.07
2023-01-29T09:49:53.766Z,5.60
2023-01-29T09:52:23.139Z,5.22
2023-01-29T09:55:07.844Z,6.10
2023-01-29T09:57:57.508Z,6.68
2023-01-29T10:00:34.739Z,6.78
2023-01-29T10:03:22.672Z,6.15
2023-01-29T10:06:04.464Z,7.00
2023-01-29T10:08:37.845Z,7.25
2023-01-29T10:11:44.034Z,6.85
2023-01-29T10:14:19.879Z,6.40
2023-01-29T10:17:11.965Z,6.78
2023-01-29T10:19:46.081Z,5.40
2023-01-29T10:22:31.383Z,5.15
2023-01-29T10:25:02.823Z,5.53
2023-01-29T10:27:38.871Z,5.28
2023-01-29T10:30:10.683Z,5.65
2023-01-29T10:32:38.351Z,5.47
2023-01-29T10:35:15.104Z,4.88
2023-01-29T10:37:43.694Z,5.65
2023-01-29T10:40:39.209Z,6.32
2023-01-29T10:43:11.844Z,5.80
2023-01-29T10:45:58.349Z,6.15
2023-01-29T10:48:54.681Z,5.78
2023-01-29T10:51:40.727Z,5.13
2023-01-29T10:54:17.105Z,5.95
2023-01-29T10:56:44.340Z,4.75
2023-01-29T10:59:29.262Z,5.68
2023-01-29T11:02:00.361Z,5.72
2023-01-29T11:04:28.316Z,5.20
2023-01-29T11:06:55.597Z,6.15
2023-01-29T11:09:29.537Z,4.97
2023-01-29T11:12:05.969Z,12.93
2023-01-29T11:14:36.082Z,6.47
2023-01-29T11:17:03.938Z,5.28
2023-01-29T11:19:38.969Z,5.85
2023-01-29T11:22:09.400Z,6.38
2023-01-29T11:24:36.581Z,4.43
2023-01-29T11:27:14.545Z,5.35
2023-01-29T11:29:46.119Z,5.00
2023-01-29T11:32:22.452Z,6.03
2023-01-29T11:35:00.165Z,5.95
2023-01-29T11:37:53.572Z,5.93
2023-01-29T11:40:20.696Z,5.32
2023-01-29T11:42:48.082Z,6.07
2023-01-29T11:45:21.545Z,5.90
2023-01-29T11:47:50.794Z,6.18
2023-01-29T11:50:22.608Z,5.97
2023-01-29T11:52:49.828Z,5.70
2023-01-29T11:55:25.019Z,4.65
2023-01-29T11:58:21.377Z,5.82
2023-01-29T12:00:50.843Z,6.43
2023-01-29T12:03:18.035Z,5.72
2023-01-29T12:05:54.994Z,5.30
2023-01-29T12:08:23.995Z,6.25
2023-01-29T12:10:51.278Z,6.35
2023-01-29T12:13:36.525Z,6.82
2023-01-29T12:16:22.361Z,6.88
2023-01-29T12:18:55.945Z,4.80
2023-01-29T12:21:35.665Z,6.40
2023-01-29T12:24:02.941Z,7.22
2023-01-29T12:26:49.541Z,6.25
2023-01-29T12:29:32.585Z,7.00
2023-01-29T12:31:59.833Z,6.97
2023-01-29T12:34:42.374Z,6.50
2023-01-29T12:37:34.960Z,7.22
2023-01-29T12:40:02.793Z,7.70
2023-01-29T12:42:30.015Z,5.90
2023-01-29T12:45:03.126Z,6.28
2023-01-29T12:47:45.756Z,6.63
2023-01-29T12:50:21.608Z,6.32
2023-01-29T12:52:52.239Z,6.93
2023-01-29T12:55:21.235Z,7.15
2023-01-29T12:57:54.889Z,6.85
2023-01-29T13:00:23.762Z,6.10
2023-01-29T13:02:53.833Z,6.88
2023-01-29T13:05:29.917Z,6.97
2023-01-29T13:08:03.866Z,5.18
2023-01-29T13:10:36.668Z,8.07
2023-01-29T13:13:06.121Z,6.63
2023-01-29T13:15:40.770Z,7.93
2023-01-29T13:18:18.909Z,6.63
2023-01-29T13:20:47.389Z,7.10
2023-01-29T13:23:39.452Z,8.02
2023-01-29T13:26:06.918Z,7.07
2023-01-29T13:28:34.204Z,7.47
2023-01-29T13:31:29.017Z,6.70
2023-01-29T13:34:22.364Z,8.82
2023-01-29T13:36:55.527Z,6.40
2023-01-29T13:39:33.485Z,8.18
2023-01-29T13:42:01.775Z,7.72
2023-01-29T13:44:33.662Z,7.85
2023-01-29T13:47:02.331Z,8.90
2023-01-29T13:49:32.488Z,9.00
2023-01-29T13:52:00.333Z,8.27
2023-01-29T13:54:28.074Z,8.52
2023-01-29T13:56:59.457Z,13.55
2023-01-29T13:59:52.012Z,7.70
2023-01-29T14:02:26.551Z,6.43
2023-01-29T14:05:31.555Z,8.95
2023-01-29T14:08:02.883Z,8.55
2023-01-29T14:10:31.701Z,7.25
2023-01-29T14:13:04.686Z,9.32
2023-01-29T14:18:07.495Z,7.78
2023-01-29T14:20:48.554Z,6.60
2023-01-29T14:23:24.849Z,8.32
2023-01-29T14:25:51.977Z,7.40
2023-01-29T14:28:23.427Z,7.75
2023-01-29T14:30:51.938Z,7.65
2023-01-29T14:33:27.944Z,9.55
2023-01-29T14:35:56.837Z,7.72
2023-01-29T14:38:26.372Z,7.80
2023-01-29T14:41:22.936Z,9.38
2023-01-29T14:43:50.154Z,8.48
2023-01-29T14:46:35.688Z,8.50
2023-01-29T14:49:03.108Z,8.98
2023-01-29T14:51:35.284Z,9.70
2023-01-29T14:54:13.236Z,8.52
2023-01-29T14:57:02.456Z,8.32
2023-01-29T14:59:37.636Z,9.95
2023-01-29T15:02:18.336Z,9.82
2023-01-29T15:04:50.759Z,9.82
2023-01-29T15:07:21.065Z,9.63
2023-01-29T15:10:13.454Z,5.88
2023-01-29T15:12:55.143Z,11.10
2023-01-29T15:15:29.351Z,9.18
2023-01-29T15:18:05.265Z,10.93
2023-01-29T15:20:34.270Z,11.18
2023-01-29T15:23:05.021Z,11.00
2023-01-29T15:25:37.743Z,10.73
2023-01-29T15:28:08.645Z,11.05
2023-01-29T15:30:36.355Z,11.05
2023-01-29T15:33:04.269Z,10.32
2023-01-29T15:35:38.486Z,8.63
2023-01-29T15:38:14.880Z,9.93
2023-01-29T15:40:42.418Z,12.27
2023-01-29T15:43:47.356Z,12.18
2023-01-29T15:46:20.010Z,10.88
2023-01-29T15:48:49.073Z,12.57
2023-01-29T15:51:21.480Z,10.10
2023-01-29T15:53:54.967Z,12.60
2023-01-29T15:56:42.081Z,9.80
2023-01-29T15:59:14.014Z,13.60
2023-01-29T16:01:40.867Z,11.82
2023-01-29T16:04:14.737Z,11.23
2023-01-29T16:06:42.510Z,12.05
2023-01-29T16:09:13.411Z,10.65
2023-01-29T16:11:40.790Z,11.60
2023-01-29T16:14:08.328Z,9.63
2023-01-29T16:16:35.624Z,9.57
2023-01-29T16:19:20.007Z,11.35
2023-01-29T16:21:50.684Z,12.00
2023-01-29T16:24:22.511Z,11.93
2023-01-29T16:26:51.170Z,12.48
2023-01-29T16:29:24.828Z,11.15
2023-01-29T16:31:54.727Z,11.48
2023-01-29T16:34:27.528Z,10.55
2023-01-29T16:36:55.509Z,12.23
2023-01-29T16:39:30.143Z,12.18
2023-01-29T16:42:03.351Z,12.85
2023-01-29T16:44:35.553Z,12.05
2023-01-29T16:47:26.146Z,12.52
2023-01-29T16:50:18.641Z,12.95
2023-01-29T16:53:01.205Z,13.18
2023-01-29T16:55:33.895Z,13.65
2023-01-29T16:58:03.853Z,10.70
2023-01-29T17:00:32.408Z,12.88
2023-01-29T17:03:05.615Z,14.27
2023-01-29T17:05:34.624Z,13.95
2023-01-29T17:08:02.089Z,14.18
2023-01-29T17:10:31.288Z,13.43
2023-01-29T17:13:01.800Z,15.23
2023-01-29T17:15:46.949Z,15.13
2023-01-29T17:18:22.777Z,15.68
2023-01-29T17:20:50.549Z,15.00
2023-01-29T17:23:17.789Z,13.75
2023-01-29T17:25:45.828Z,15.50
2023-01-29T17:28:18.082Z,15.88
2023-01-29T17:30:56.591Z,15.45
2023-01-29T17:33:32.040Z,13.05
2023-01-29T17:35:59.278Z,14.73
2023-01-29T17:38:26.998Z,13.88
2023-01-29T17:40:59.610Z,14.50
2023-01-29T17:43:26.653Z,13.88
2023-01-29T17:45:54.179Z,16.50
2023-01-29T17:48:25.715Z,14.20
2023-01-29T17:50:53.989Z,15.63
2023-01-29T17:53:21.956Z,15.52
2023-01-29T17:55:49.555Z,16.73
2023-01-29T17:58:27.293Z,15.80
2023-01-29T18:00:55.313Z,16.15
2023-01-29T18:03:23.143Z,16.15
2023-01-29T18:05:50.917Z,14.13
2023-01-29T18:08:44.294Z,15.00
2023-01-29T18:11:13.689Z,14.65
2023-01-29T18:13:42.008Z,14.65
2023-01-29T18:16:09.847Z,15.68
2023-01-29T18:18:37.115Z,14.55
2023-01-29T18:21:04.514Z,14.93
2023-01-29T18:23:31.783Z,12.65
2023-01-29T18:25:59.148Z,13.32
2023-01-29T18:28:26.388Z,16.58
2023-01-29T18:30:53.807Z,17.25
2023-01-29T18:33:21.156Z,17.20
2023-01-29T18:35:48.362Z,18.27
2023-01-29T18:38:15.687Z,16.55
2023-01-29T18:40:42.555Z,16.00
2023-01-29T18:43:09.762Z,16.58
2023-01-29T18:45:37.155Z,16.70
2023-01-29T18:48:05.105Z,17.13
2023-01-29T18:50:32.060Z,16.20
2023-01-29T18:52:59.411Z,18.23
2023-01-29T18:55:29.353Z,17.42
2023-01-29T18:58:26.920Z,15.40
2023-01-29T19:00:45.409Z,13.80
2023-01-29T19:03:12.672Z,14.45
2023-01-29T19:05:39.866Z,14.30
2023-01-29T19:08:07.473Z,16.85
2023-01-29T19:10:34.768Z,16.92
2023-01-29T19:13:02.211Z,16.52
2023-01-29T19:15:29.880Z,17.00
2023-01-29T19:17:57.114Z,14.82
2023-01-29T19:20:24.484Z,16.63
2023-01-29T19:22:51.774Z,16.35
2023-01-29T19:25:19.639Z,17.17
2023-01-29T19:27:47.104Z,16.40
2023-01-29T19:30:14.188Z,12.73
2023-01-29T19:32:41.556Z,15.48
2023-01-29T19:35:08.511Z,15.77
2023-01-29T19:37:35.909Z,15.95
2023-01-29T19:40:03.226Z,18.40
2023-01-29T19:42:30.104Z,18.17
2023-01-29T19:44:57.659Z,12.80
2023-01-29T19:47:24.625Z,15.40
2023-01-29T19:49:51.877Z,16.58
2023-01-29T19:52:49.850Z,16.48
2023-01-29T19:55:18.306Z,16.10
2023-01-29T19:57:45.922Z,15.00
2023-01-29T20:00:14.894Z,16.48
2023-01-29T20:02:42.125Z,17.15
2023-01-29T20:05:12.112Z,12.98
2023-01-29T20:07:40.072Z,15.02
2023-01-29T20:10:11.433Z,14.00
2023-01-29T20:12:43.343Z,16.25
2023-01-29T20:15:11.231Z,14.77
2023-01-29T20:17:38.184Z,12.88
2023-01-29T20:20:06.004Z,15.32
2023-01-29T20:22:33.459Z,14.05
2023-01-29T20:25:00.670Z,17.75
2023-01-29T20:27:28.370Z,16.30
2023-01-29T20:29:55.168Z,16.75
2023-01-29T20:32:22.380Z,18.02
2023-01-29T20:34:52.378Z,15.60
2023-01-29T20:37:19.735Z,16.10
2023-01-29T20:39:47.196Z,18.92
2023-01-29T20:42:14.062Z,16.58
2023-01-29T20:44:41.331Z,16.45
2023-01-29T20:47:08.703Z,17.77
2023-01-29T20:49:36.378Z,16.70
2023-01-29T20:52:04.077Z,18.77
2023-01-29T20:54:35.001Z,18.33
2023-01-29T20:57:02.442Z,15.77
2023-01-29T20:59:29.647Z,17.95
2023-01-29T21:01:56.983Z,18.00
2023-01-29T21:04:24.277Z,15.98
2023-01-29T21:06:51.503Z,17.08
2023-01-29T21:09:18.328Z,15.13
2023-01-29T21:11:45.645Z,17.83
2023-01-29T21:14:12.921Z,18.65
2023-01-29T21:16:40.171Z,15.80
2023-01-29T21:19:07.418Z,15.18
2023-01-29T21:21:34.759Z,17.15
2023-01-29T21:24:02.008Z,18.30
2023-01-29T21:26:28.943Z,14.52
2023-01-29T21:28:56.218Z,17.08
2023-01-29T21:31:23.119Z,15.13
2023-01-29T21:33:50.387Z,16.83
2023-01-29T21:36:17.695Z,16.08
2023-01-29T21:38:44.562Z,18.50
2023-01-29T21:41:11.799Z,16.55
2023-01-29T21:43:39.190Z,16.25
2023-01-29T21:46:14.129Z,16.92
2023-01-29T21:48:41.596Z,15.77
2023-01-29T21:51:09.052Z,15.95
2023-01-29T21:53:36.860Z,16.50
2023-01-29T21:56:05.212Z,18.08
2023-01-29T21:58:32.731Z,18.85
2023-01-29T22:01:34.708Z,15.45
2023-01-29T22:03:47.762Z,17.35
2023-01-29T22:06:15.563Z,15.65
2023-01-29T22:08:42.474Z,15.13
2023-01-29T22:11:10.527Z,14.73
2023-01-29T22:13:37.723Z,15.80
2023-01-29T22:16:06.054Z,17.55
2023-01-29T22:18:33.566Z,15.73
2023-01-29T22:21:02.997Z,16.63
2023-01-29T22:23:31.042Z,14.07
2023-01-29T22:26:10.020Z,17.52
2023-01-29T22:28:36.889Z,16.48
2023-01-29T22:31:05.370Z,15.60
2023-01-29T22:33:33.540Z,14.57
2023-01-29T22:36:00.712Z,16.92
2023-01-29T22:38:28.028Z,15.63
2023-01-29T22:40:56.005Z,15.73
2023-01-29T22:43:25.971Z,16.92
2023-01-29T22:45:53.086Z,15.07
2023-01-29T22:48:20.594Z,16.63
2023-01-29T22:50:53.900Z,16.42
2023-01-29T22:53:21.250Z,15.63
2023-01-29T22:55:55.592Z,15.88
2023-01-29T22:58:22.806Z,14.98
2023-01-29T23:00:53.099Z,13.60
2023-01-29T23:03:20.330Z,17.80
2023-01-29T23:05:47.187Z,16.45
2023-01-29T23:08:14.419Z,17.15
2023-01-29T23:10:41.637Z,19.48
2023-01-29T23:13:09.473Z,17.35
2023-01-29T23:15:36.673Z,18.67
2023-01-29T23:18:04.530Z,15.35
2023-01-29T23:20:31.802Z,15.82
2023-01-29T23:22:59.288Z,16.98
2023-01-29T23:25:46.472Z,15.93
2023-01-29T23:28:13.812Z,13.43
2023-01-29T23:30:40.845Z,17.10
2023-01-29T23:33:10.359Z,17.15
2023-01-29T23:35:38.832Z,18.17
2023-01-29T23:38:06.068Z,19.98
2023-01-29T23:40:32.884Z,16.40
2023-01-29T23:43:00.092Z,17.15
2023-01-29T23:45:27.457Z,17.60
2023-01-29T23:47:54.300Z,14.50
2023-01-29T23:50:21.552Z,17.05
2023-01-29T23:52:48.762Z,17.63
2023-01-29T23:55:16.072Z,16.27
2023-01-29T23:57:43.265Z,16.30
